Date,TemperatureHighF,TemperatureAvgF,TemperatureLowF,DewpointHighF,DewpointAvgF,DewpointLowF,HumidityHigh,HumidityAvg,HumidityLow,PressureMaxIn,PressureMinIn,WindSpeedMaxMPH,WindSpeedAvgMPH,GustSpeedMaxMPH,PrecipitationSumIn
2013-5-1,58,39,28,26,20,15,69,48,24,30.43,30.13,7,1,7,0.00
2013-5-2,70,51,32,30,23,18,67,38,17,30.47,30.12,9,3,9,0.00
2013-5-3,69,55,39,42,28,17,76,38,21,30.12,29.99,11,3,11,0.00
2013-5-4,63,53,45,46,40,32,80,64,43,30.14,30.07,10,2,10,0.00
2013-5-5,74,55,34,42,34,27,80,50,24,30.11,29.91,12,1,12,0.00
2013-5-6,82,60,37,42,33,24,66,39,19,29.95,29.77,8,1,8,0.00
2013-5-7,84,64,42,43,33,27,65,36,16,29.86,29.72,10,2,10,0.00
2013-5-8,78,62,44,44,38,31,64,42,28,30.04,29.86,10,2,10,0.00
2013-5-9,80,60,42,48,39,32,72,49,24,30.05,29.95,9,1,9,0.00
2013-5-10,74,61,46,46,36,23,72,44,24,30.27,30.00,16,3,16,0.00
2013-5-11,83,62,37,41,32,22,56,35,21,30.27,29.94,8,1,8,0.00
2013-5-12,94,72,55,46,38,28,48,32,10,29.97,29.80,11,2,11,0.00
2013-5-13,97,77,59,49,39,31,49,29,11,29.90,29.60,13,2,13,0.00
2013-5-14,86,70,54,47,37,26,66,33,16,29.86,29.62,13,2,13,0.00
2013-5-15,81,66,46,42,32,23,43,29,19,29.94,29.73,8,1,8,0.00
2013-5-16,75,61,54,51,47,41,82,60,37,29.80,29.69,9,2,9,0.00
2013-5-17,63,56,52,56,51,48,88,83,71,29.79,29.74,5,0,5,0.00
2013-5-18,60,56,52,56,52,49,91,88,78,29.83,29.78,8,1,8,0.00
2013-5-19,55,53,51,52,50,48,93,91,88,29.94,29.81,9,1,9,0.00
2013-5-20,67,56,49,52,45,30,93,69,26,30.04,29.93,17,3,17,0.00
2013-5-21,72,57,43,48,42,38,87,60,32,30.01,29.82,12,2,12,0.00
2013-5-22,72,57,46,52,45,40,83,66,45,29.88,29.76,14,4,14,0.00
2013-5-23,78,62,54,54,49,44,84,63,41,29.83,29.59,12,3,12,0.00
2013-5-24,76,62,51,51,43,34,86,56,23,29.84,29.62,10,2,10,0.00
2013-5-25,81,62,44,49,42,35,76,51,29,29.83,29.72,9,2,9,0.00
2013-5-26,80,62,50,58,49,40,80,64,42,29.88,29.70,8,1,8,0.00
2013-5-27,70,58,51,55,49,44,86,74,49,29.80,29.68,12,1,12,0.00
2013-5-28,75,59,46,54,47,42,88,67,35,29.69,29.57,9,1,9,0.00
2013-5-29,60,54,53,54,51,48,92,88,68,29.65,29.56,6,1,6,0.00
2013-5-30,54,52,50,50,48,46,92,88,76,29.74,29.54,11,3,11,0.00
2013-5-31,58,52,49,46,44,41,85,75,62,30.11,29.72,12,4,12,0.00